createdAt,value
2023-12-20T00:00:47.697Z,65.05
2023-12-20T00:01:47.715Z,64.84
2023-12-20T00:02:47.633Z,64.81
2023-12-20T00:03:47.629Z,64.31
2023-12-20T00:04:47.709Z,64.31
2023-12-20T00:05:47.580Z,64.41
2023-12-20T00:06:47.650Z,64.41
2023-12-20T00:07:47.843Z,64.31
2023-12-20T00:08:47.527Z,63.87
2023-12-20T00:09:47.580Z,63.57
2023-12-20T00:10:47.553Z,63.57
2023-12-20T00:11:47.523Z,63.67
2023-12-20T00:12:47.527Z,63.64
2023-12-20T00:13:50.000Z,63.54
2023-12-20T00:14:47.492Z,63.33
2023-12-20T00:15:47.546Z,63.23
2023-12-20T00:16:47.432Z,63.02
2023-12-20T00:17:47.669Z,62.82
2023-12-20T00:18:47.568Z,63.33
2023-12-20T00:19:47.489Z,63.43
2023-12-20T00:20:47.519Z,63.33
2023-12-20T00:21:47.485Z,63.33
2023-12-20T00:22:47.393Z,63.30
2023-12-20T00:23:47.582Z,63.30
2023-12-20T00:24:47.608Z,63.30
2023-12-20T00:25:47.379Z,63.10
2023-12-20T00:26:47.422Z,63.00
2023-12-20T00:27:47.657Z,63.00
2023-12-20T00:28:47.308Z,63.00
2023-12-20T00:29:47.334Z,63.00
2023-12-20T00:30:47.469Z,63.10
2023-12-20T00:31:47.443Z,63.20
2023-12-20T00:32:47.514Z,63.20
2023-12-20T00:33:47.464Z,63.20
2023-12-20T00:34:47.465Z,63.10
2023-12-20T00:35:47.179Z,63.13
2023-12-20T00:36:47.267Z,63.33
2023-12-20T00:37:47.482Z,63.30
2023-12-20T00:38:47.173Z,63.40
2023-12-20T00:39:47.138Z,63.40
2023-12-20T00:40:47.107Z,63.40
2023-12-20T00:41:47.117Z,63.30
2023-12-20T00:42:47.129Z,63.20
2023-12-20T00:43:47.071Z,63.00
2023-12-20T00:44:47.100Z,62.93
2023-12-20T00:45:47.073Z,64.28
2023-12-20T00:46:47.021Z,63.87
2023-12-20T00:47:47.522Z,64.00
2023-12-20T00:48:47.122Z,64.92
2023-12-20T00:49:47.002Z,65.05
2023-12-20T00:50:46.986Z,65.49
2023-12-20T00:51:47.023Z,66.30
2023-12-20T00:52:46.961Z,66.17
2023-12-20T00:53:46.933Z,66.20
2023-12-20T00:54:47.017Z,66.20
2023-12-20T00:55:46.909Z,66.41
2023-12-20T00:56:46.919Z,66.41
2023-12-20T00:57:47.332Z,66.85
2023-12-20T00:58:46.857Z,67.43
2023-12-20T00:59:46.867Z,66.91
2023-12-20T01:00:47.031Z,67.02
2023-12-20T01:01:46.983Z,66.82
2023-12-20T01:02:46.827Z,66.94
2023-12-20T01:03:46.917Z,67.83
2023-12-20T01:04:46.827Z,66.94
2023-12-20T01:05:46.810Z,67.52
2023-12-20T01:06:46.839Z,66.61
2023-12-20T01:07:47.166Z,66.61
2023-12-20T01:08:46.749Z,67.12
2023-12-20T01:09:46.804Z,67.25
2023-12-20T01:10:46.711Z,67.76
2023-12-20T01:11:46.747Z,67.86
2023-12-20T01:12:46.708Z,68.07
2023-12-20T01:13:46.672Z,67.96
2023-12-20T01:14:46.694Z,67.96
2023-12-20T01:15:46.670Z,68.30
2023-12-20T01:16:46.625Z,68.37
2023-12-20T01:17:46.949Z,68.51
2023-12-20T01:18:46.630Z,68.68
2023-12-20T01:19:46.630Z,68.37
2023-12-20T01:20:46.589Z,68.24
2023-12-20T01:21:46.583Z,68.17
2023-12-20T01:22:46.540Z,68.51
2023-12-20T01:23:46.572Z,69.56
2023-12-20T01:24:46.537Z,69.66
2023-12-20T01:25:46.508Z,69.86
2023-12-20T01:26:46.541Z,69.66
2023-12-20T01:27:46.867Z,69.83
2023-12-20T01:28:46.458Z,69.46
2023-12-20T01:29:46.474Z,69.56
2023-12-20T01:30:46.566Z,70.48
2023-12-20T01:31:46.501Z,70.68
2023-12-20T01:32:46.448Z,70.40
2023-12-20T01:33:46.448Z,71.02
2023-12-20T01:34:46.543Z,70.92
2023-12-20T01:35:46.388Z,71.12
2023-12-20T01:36:46.431Z,70.92
2023-12-20T01:37:46.794Z,70.68
2023-12-20T01:38:46.337Z,70.37
2023-12-20T01:39:46.343Z,70.37
2023-12-20T01:40:46.302Z,71.12
2023-12-20T01:41:46.377Z,70.48
2023-12-20T01:42:46.302Z,70.72
2023-12-20T01:43:51.288Z,70.61
2023-12-20T01:44:47.302Z,71.26
2023-12-20T01:45:46.254Z,71.22
2023-12-20T01:46:46.302Z,71.43
2023-12-20T01:47:46.597Z,70.57
2023-12-20T01:48:46.244Z,70.17
2023-12-20T01:49:46.331Z,70.27
2023-12-20T01:50:46.166Z,70.17
2023-12-20T01:51:46.210Z,70.20
2023-12-20T01:52:46.151Z,70.92
2023-12-20T01:53:46.170Z,70.57
2023-12-20T01:54:46.131Z,70.17
2023-12-20T01:55:46.108Z,69.56
2023-12-20T01:56:46.100Z,70.00
2023-12-20T01:57:46.407Z,70.54
2023-12-20T01:58:46.067Z,71.05
2023-12-20T01:59:46.089Z,70.95
2023-12-20T02:10:27.999Z,91.27
2023-12-20T02:11:27.904Z,87.08
2023-12-20T02:12:27.904Z,81.79
2023-12-20T02:13:27.931Z,78.58
2023-12-20T02:14:27.965Z,74.97
2023-12-20T02:15:27.938Z,73.30
2023-12-20T02:16:27.952Z,72.28
2023-12-20T02:17:27.849Z,71.46
2023-12-20T02:18:27.982Z,71.59
2023-12-20T02:19:27.850Z,71.63
2023-12-20T02:20:27.786Z,70.17
2023-12-20T02:21:27.761Z,70.61
2023-12-20T02:22:27.822Z,70.31
2023-12-20T02:23:27.746Z,70.20
2023-12-20T02:24:27.719Z,70.68
2023-12-20T02:25:27.830Z,69.66
2023-12-20T02:26:27.708Z,69.46
2023-12-20T02:27:27.674Z,69.53
2023-12-20T02:28:28.297Z,68.81
2023-12-20T02:29:27.692Z,68.81
2023-12-20T02:30:27.713Z,68.51
2023-12-20T02:31:27.640Z,69.02
2023-12-20T02:32:28.169Z,68.71
2023-12-20T02:33:27.841Z,68.61
2023-12-20T02:34:27.856Z,68.30
2023-12-20T02:35:27.598Z,68.51
2023-12-20T02:36:27.581Z,68.30
2023-12-20T02:37:27.658Z,69.05
2023-12-20T02:38:27.654Z,69.05
2023-12-20T02:39:27.519Z,69.22
2023-12-20T02:40:27.574Z,68.40
2023-12-20T02:41:27.525Z,68.40
2023-12-20T02:42:27.491Z,69.05
2023-12-20T02:43:27.619Z,69.15
2023-12-20T02:44:27.461Z,69.29
2023-12-20T02:45:27.476Z,70.20
2023-12-20T02:46:27.475Z,69.49
2023-12-20T02:47:27.474Z,69.38
2023-12-20T02:48:27.479Z,70.20
2023-12-20T02:49:27.485Z,70.00
2023-12-20T02:50:27.392Z,70.00
2023-12-20T02:51:27.350Z,69.69
2023-12-20T02:52:27.466Z,69.79
2023-12-20T02:53:27.328Z,69.86
2023-12-20T02:54:27.319Z,69.29
2023-12-20T02:55:27.370Z,70.34
2023-12-20T02:56:27.290Z,70.14
2023-12-20T02:57:27.300Z,69.59
2023-12-20T02:58:27.468Z,68.95
2023-12-20T02:59:27.247Z,69.29
2023-12-20T03:00:27.236Z,69.18
2023-12-20T03:01:27.274Z,68.98
2023-12-20T03:02:27.268Z,69.42
2023-12-20T03:03:27.183Z,69.49
2023-12-20T03:04:27.320Z,68.70
2023-12-20T03:05:27.229Z,69.35
2023-12-20T03:06:27.258Z,69.29
2023-12-20T03:07:27.170Z,69.15
2023-12-20T03:08:29.420Z,68.64
2023-12-20T03:09:27.130Z,67.79
2023-12-20T03:10:27.803Z,67.66
2023-12-20T03:11:27.085Z,67.18
2023-12-20T03:12:27.097Z,67.69
2023-12-20T03:13:27.079Z,67.69
2023-12-20T03:14:27.050Z,67.79
2023-12-20T03:15:27.031Z,67.49
2023-12-20T03:16:27.059Z,67.69
2023-12-20T03:17:27.033Z,68.88
2023-12-20T03:18:27.005Z,68.95
2023-12-20T03:19:27.037Z,68.64
2023-12-20T03:20:26.972Z,67.99
2023-12-20T03:21:26.955Z,67.99
2023-12-20T03:22:26.956Z,67.82
2023-12-20T03:23:26.920Z,68.98
2023-12-20T03:24:26.944Z,69.46
2023-12-20T03:25:26.973Z,69.08
2023-12-20T03:26:26.917Z,68.64
2023-12-20T03:27:26.865Z,69.49
2023-12-20T03:28:27.004Z,69.18
2023-12-20T03:29:26.863Z,69.49
2023-12-20T03:30:26.835Z,69.25
2023-12-20T03:31:26.847Z,68.74
2023-12-20T03:32:26.927Z,69.29
2023-12-20T03:33:26.836Z,69.76
2023-12-20T03:34:26.855Z,68.64
2023-12-20T03:35:26.750Z,69.49
2023-12-20T03:36:26.753Z,69.82
2023-12-20T03:37:26.763Z,70.85
2023-12-20T03:38:26.782Z,70.34
2023-12-20T03:39:26.735Z,70.34
2023-12-20T03:40:26.816Z,69.76
2023-12-20T03:41:26.664Z,69.46
2023-12-20T03:42:26.675Z,68.95
2023-12-20T03:43:26.681Z,69.38
2023-12-20T03:44:26.680Z,69.69
2023-12-20T03:45:26.629Z,70.14
2023-12-20T03:46:26.646Z,70.31
2023-12-20T03:47:26.652Z,70.00
2023-12-20T03:48:26.577Z,69.66
2023-12-20T03:49:26.631Z,69.25
2023-12-20T03:50:26.667Z,69.38
2023-12-20T03:51:26.558Z,69.76
2023-12-20T03:52:26.597Z,69.18
2023-12-20T03:53:26.553Z,69.59
2023-12-20T03:54:26.495Z,70.20
2023-12-20T03:55:26.523Z,69.35
2023-12-20T03:56:26.496Z,68.88
2023-12-20T03:57:26.476Z,69.59
2023-12-20T03:58:26.505Z,69.15
2023-12-20T03:59:26.429Z,69.08
2023-12-20T04:00:26.425Z,69.35
2023-12-20T04:01:26.483Z,69.25
2023-12-20T04:02:26.409Z,68.54
2023-12-20T04:03:26.416Z,68.84
2023-12-20T04:04:26.443Z,68.64
2023-12-20T04:05:26.534Z,68.51
2023-12-20T04:06:26.441Z,67.99
2023-12-20T04:07:26.493Z,67.99
2023-12-20T04:08:26.303Z,68.10
2023-12-20T04:09:26.288Z,67.55
2023-12-20T04:10:26.335Z,66.74
2023-12-20T04:11:26.262Z,67.01
2023-12-20T04:12:26.258Z,68.57
2023-12-20T04:13:26.336Z,67.99
2023-12-20T04:14:26.242Z,67.38
2023-12-20T04:15:26.224Z,67.35
2023-12-20T04:16:26.254Z,66.50
2023-12-20T04:17:26.206Z,66.23
2023-12-20T04:18:26.262Z,66.23
2023-12-20T04:19:26.279Z,66.57
2023-12-20T04:20:26.155Z,67.62
2023-12-20T04:21:26.137Z,67.08
2023-12-20T04:22:26.212Z,67.18
2023-12-20T04:23:26.132Z,66.97
2023-12-20T04:24:26.117Z,66.97
2023-12-20T04:25:26.143Z,66.64
2023-12-20T04:26:26.082Z,66.64
2023-12-20T04:27:26.058Z,66.47
2023-12-20T04:28:26.066Z,67.08
2023-12-20T04:29:26.028Z,67.38
2023-12-20T04:30:26.047Z,67.85
2023-12-20T04:31:26.142Z,68.03
2023-12-20T04:32:26.025Z,68.13
2023-12-20T04:33:26.001Z,67.90
2023-12-20T04:34:26.080Z,67.41
2023-12-20T04:35:25.985Z,67.93
2023-12-20T04:36:25.937Z,68.13
2023-12-20T04:37:26.027Z,67.72
2023-12-20T04:38:25.932Z,68.74
2023-12-20T04:39:25.911Z,68.33
2023-12-20T04:40:25.913Z,68.67
2023-12-20T04:41:25.927Z,68.44
2023-12-20T04:42:25.863Z,68.88
2023-12-20T04:43:25.885Z,69.05
2023-12-20T04:44:25.842Z,68.23
2023-12-20T04:45:25.890Z,68.10
2023-12-20T04:46:25.874Z,68.61
2023-12-20T04:47:25.834Z,67.55
2023-12-20T04:48:25.841Z,67.25
2023-12-20T04:49:25.852Z,67.49
2023-12-20T04:50:25.839Z,67.76
2023-12-20T04:51:25.767Z,66.71
2023-12-20T04:52:25.773Z,67.38
2023-12-20T04:53:25.717Z,68.13
2023-12-20T04:54:25.704Z,69.62
2023-12-20T04:55:25.713Z,70.54
2023-12-20T04:56:25.661Z,70.31
2023-12-20T04:57:25.688Z,69.56
2023-12-20T04:58:25.720Z,68.74
2023-12-20T04:59:25.616Z,68.51
2023-12-20T05:00:25.640Z,68.20
2023-12-20T05:01:25.673Z,68.81
2023-12-20T05:02:25.579Z,68.84
2023-12-20T05:03:25.586Z,68.81
2023-12-20T05:04:25.630Z,68.30
2023-12-20T05:05:25.580Z,68.40
2023-12-20T05:06:25.539Z,68.71
2023-12-20T05:07:25.563Z,68.91
2023-12-20T05:08:25.523Z,68.77
2023-12-20T05:09:25.533Z,70.31
2023-12-20T05:10:25.607Z,70.20
2023-12-20T05:11:25.449Z,69.49
2023-12-20T05:12:25.450Z,70.03
2023-12-20T05:13:34.400Z,70.51
2023-12-20T05:14:26.458Z,70.92
2023-12-20T05:15:25.448Z,70.61
2023-12-20T05:16:25.432Z,70.20
2023-12-20T05:17:25.399Z,70.85
2023-12-20T05:18:25.387Z,70.81
2023-12-20T05:19:25.505Z,70.61
2023-12-20T05:20:25.405Z,70.51
2023-12-20T05:21:25.360Z,70.95
2023-12-20T05:22:25.403Z,70.92
2023-12-20T05:23:25.308Z,71.02
2023-12-20T05:24:25.313Z,70.92
2023-12-20T05:25:25.314Z,71.26
2023-12-20T05:26:25.273Z,71.12
2023-12-20T05:27:25.235Z,70.51
2023-12-20T05:28:25.352Z,71.02
2023-12-20T05:29:25.215Z,70.72
2023-12-20T05:30:25.215Z,70.27
2023-12-20T05:31:25.227Z,69.96
2023-12-20T05:32:25.170Z,69.63
2023-12-20T05:33:25.265Z,69.22
2023-12-20T05:34:25.327Z,69.12
2023-12-20T05:35:25.240Z,69.66
2023-12-20T05:36:25.133Z,69.76
2023-12-20T05:37:25.141Z,70.51
2023-12-20T05:38:25.129Z,70.68
2023-12-20T05:39:25.115Z,69.22
2023-12-20T05:40:25.151Z,69.76
2023-12-20T05:41:25.082Z,70.17
2023-12-20T05:42:25.038Z,70.17
2023-12-20T05:43:25.085Z,70.07
2023-12-20T05:44:25.030Z,69.63
2023-12-20T05:45:25.020Z,69.22
2023-12-20T05:46:25.012Z,70.07
2023-12-20T05:47:24.994Z,69.76
2023-12-20T05:48:24.998Z,70.72
2023-12-20T05:49:25.057Z,70.98
2023-12-20T05:50:24.927Z,70.48
2023-12-20T05:51:24.978Z,70.24
2023-12-20T05:52:24.945Z,69.53
2023-12-20T05:53:24.917Z,69.42
2023-12-20T05:54:24.919Z,69.53
2023-12-20T05:55:24.876Z,69.76
2023-12-20T05:56:24.864Z,70.37
2023-12-20T05:57:24.870Z,70.57
2023-12-20T05:58:24.911Z,70.78
2023-12-20T05:59:24.812Z,70.34
2023-12-20T06:00:24.818Z,69.93
2023-12-20T06:01:24.839Z,70.14
2023-12-20T06:02:24.804Z,69.56
2023-12-20T06:03:24.761Z,70.04
2023-12-20T06:04:24.861Z,69.56
2023-12-20T06:05:24.848Z,70.48
2023-12-20T06:06:24.739Z,69.76
2023-12-20T06:07:24.804Z,69.76
2023-12-20T06:08:24.684Z,70.57
2023-12-20T06:09:24.680Z,71.33
2023-12-20T06:10:24.778Z,70.78
2023-12-20T06:11:24.643Z,70.48
2023-12-20T06:12:24.640Z,70.89
2023-12-20T06:13:24.653Z,69.63
2023-12-20T06:14:24.593Z,69.63
2023-12-20T06:15:24.606Z,69.05
2023-12-20T06:16:24.634Z,70.27
2023-12-20T06:17:24.599Z,70.17
2023-12-20T06:18:24.631Z,70.31
2023-12-20T06:19:24.603Z,70.68
2023-12-20T06:20:24.620Z,70.37
2023-12-20T06:21:24.504Z,71.02
2023-12-20T06:22:24.552Z,70.78
2023-12-20T06:23:24.476Z,69.86
2023-12-20T06:24:24.467Z,70.27
2023-12-20T06:25:24.508Z,70.31
2023-12-20T06:26:24.472Z,70.78
2023-12-20T06:27:24.468Z,69.96
2023-12-20T06:28:24.525Z,69.96
2023-12-20T06:29:24.407Z,69.96
2023-12-20T06:30:24.484Z,69.02
2023-12-20T06:31:24.404Z,69.83
2023-12-20T06:32:24.394Z,69.66
2023-12-20T06:33:24.352Z,69.22
2023-12-20T06:34:24.490Z,68.98
2023-12-20T06:35:24.467Z,68.37
2023-12-20T06:36:24.294Z,68.81
2023-12-20T06:37:24.499Z,69.25
2023-12-20T06:38:24.314Z,69.63
2023-12-20T06:39:24.265Z,69.66
2023-12-20T06:40:24.289Z,70.07
2023-12-20T06:41:24.241Z,69.76
2023-12-20T06:42:24.211Z,70.10
2023-12-20T06:43:32.620Z,69.96
2023-12-20T06:44:25.268Z,70.27
2023-12-20T06:45:24.221Z,70.37
2023-12-20T06:46:24.244Z,69.86
2023-12-20T06:47:24.190Z,70.61
2023-12-20T06:48:24.142Z,70.10
2023-12-20T06:49:24.239Z,70.27
2023-12-20T06:50:24.170Z,70.51
2023-12-20T06:51:24.087Z,70.27
2023-12-20T06:52:24.150Z,70.40
2023-12-20T06:53:24.077Z,70.37
2023-12-20T06:54:24.060Z,69.83
2023-12-20T06:55:24.056Z,69.12
2023-12-20T06:56:24.106Z,68.61
2023-12-20T06:57:24.022Z,68.91
2023-12-20T06:58:24.123Z,68.81
2023-12-20T06:59:23.997Z,69.42
2023-12-20T07:00:24.008Z,69.35
2023-12-20T07:01:24.044Z,69.22
2023-12-20T07:02:24.003Z,69.46
2023-12-20T07:03:23.933Z,69.66
2023-12-20T07:04:24.144Z,69.46
2023-12-20T07:05:23.946Z,70.61
2023-12-20T07:06:25.413Z,70.07
2023-12-20T07:07:23.928Z,70.17
2023-12-20T07:08:23.894Z,70.17
2023-12-20T07:09:23.866Z,69.83
2023-12-20T07:10:23.879Z,69.12
2023-12-20T07:11:23.840Z,69.56
2023-12-20T07:12:23.812Z,70.17
2023-12-20T07:13:23.844Z,70.27
2023-12-20T07:14:23.832Z,70.54
2023-12-20T07:15:25.533Z,68.91
2023-12-20T07:16:23.842Z,69.32
2023-12-20T07:17:23.757Z,68.48
2023-12-20T07:18:23.759Z,67.96
2023-12-20T07:19:23.922Z,68.81
2023-12-20T07:20:23.796Z,69.66
2023-12-20T07:21:23.684Z,69.76
2023-12-20T07:22:23.775Z,69.53
2023-12-20T07:23:23.671Z,68.57
2023-12-20T07:24:23.636Z,68.71
2023-12-20T07:25:23.756Z,69.76
2023-12-20T07:26:23.720Z,69.22
2023-12-20T07:27:23.623Z,69.15
2023-12-20T07:28:23.643Z,69.32
2023-12-20T07:29:23.605Z,68.81
2023-12-20T07:30:23.648Z,69.32
2023-12-20T07:31:23.716Z,69.12
2023-12-20T07:32:23.556Z,69.15
2023-12-20T07:33:23.706Z,69.32
2023-12-20T07:34:23.633Z,68.61
2023-12-20T07:35:23.550Z,68.54
2023-12-20T07:36:23.492Z,69.05
2023-12-20T07:37:23.554Z,68.88
2023-12-20T07:38:23.468Z,68.84
2023-12-20T07:39:23.446Z,68.30
2023-12-20T07:40:23.541Z,67.66
2023-12-20T07:41:23.426Z,66.91
2023-12-20T07:42:23.412Z,66.50
2023-12-20T07:43:23.418Z,67.05
2023-12-20T07:44:23.580Z,67.25
2023-12-20T07:45:23.405Z,67.52
2023-12-20T07:46:23.423Z,66.27
2023-12-20T07:47:23.334Z,66.20
2023-12-20T07:48:23.367Z,66.71
2023-12-20T07:49:23.403Z,66.50
2023-12-20T07:50:23.346Z,67.15
2023-12-20T07:51:23.392Z,67.12
2023-12-20T07:52:23.378Z,67.15
2023-12-20T07:53:23.272Z,67.02
2023-12-20T07:54:23.230Z,66.71
2023-12-20T07:55:23.305Z,66.82
2023-12-20T07:56:23.244Z,66.82
2023-12-20T07:57:23.270Z,66.64
2023-12-20T07:58:27.204Z,67.25
2023-12-20T07:59:29.961Z,67.15
2023-12-20T08:00:24.238Z,67.79
2023-12-20T08:01:23.734Z,68.30
2023-12-20T08:02:23.134Z,68.51
2023-12-20T08:03:23.189Z,68.07
2023-12-20T08:04:23.215Z,68.10
2023-12-20T08:05:23.093Z,67.99
2023-12-20T08:06:23.093Z,68.30
2023-12-20T08:07:23.094Z,68.40
2023-12-20T08:08:23.056Z,67.96
2023-12-20T08:09:23.089Z,67.99
2023-12-20T08:10:23.195Z,67.69
2023-12-20T08:11:23.030Z,67.69
2023-12-20T08:12:23.053Z,68.30
2023-12-20T08:13:23.056Z,68.13
2023-12-20T08:14:22.982Z,68.33
2023-12-20T08:15:23.018Z,67.99
2023-12-20T08:16:23.028Z,67.49
2023-12-20T08:17:22.947Z,67.08
2023-12-20T08:18:22.954Z,67.18
2023-12-20T08:19:23.043Z,67.29
2023-12-20T08:20:27.177Z,66.88
2023-12-20T08:21:24.042Z,66.97
2023-12-20T08:22:22.904Z,66.77
2023-12-20T08:23:25.258Z,66.97
2023-12-20T08:24:22.838Z,66.57
2023-12-20T08:25:22.942Z,66.47
2023-12-20T08:26:22.822Z,66.80
2023-12-20T08:27:22.828Z,67.21
2023-12-20T08:28:22.808Z,67.01
2023-12-20T08:29:22.792Z,66.70
2023-12-20T08:30:22.813Z,66.60
2023-12-20T08:31:23.041Z,66.57
2023-12-20T08:32:22.713Z,65.95
2023-12-20T08:33:22.778Z,65.86
2023-12-20T08:34:22.793Z,66.57
2023-12-20T08:35:22.719Z,65.55
2023-12-20T08:36:22.698Z,66.09
2023-12-20T08:37:22.723Z,65.99
2023-12-20T08:38:22.664Z,66.19
2023-12-20T08:39:22.652Z,66.30
2023-12-20T08:40:22.672Z,66.09
2023-12-20T08:41:22.609Z,65.89
2023-12-20T08:42:22.628Z,65.78
2023-12-20T08:43:22.580Z,65.89
2023-12-20T08:44:22.572Z,65.58
2023-12-20T08:45:22.549Z,65.17
2023-12-20T08:46:22.597Z,65.28
2023-12-20T08:47:22.586Z,64.97
2023-12-20T08:48:22.671Z,65.31
2023-12-20T08:49:22.554Z,65.41
2023-12-20T08:50:22.512Z,65.71
2023-12-20T08:51:22.469Z,64.76
2023-12-20T08:52:22.584Z,64.43
2023-12-20T08:53:22.452Z,63.82
2023-12-20T08:54:22.452Z,63.51
2023-12-20T08:55:22.558Z,63.85
2023-12-20T08:56:22.409Z,63.92
2023-12-20T08:57:22.448Z,63.41
2023-12-20T08:58:22.424Z,62.90
2023-12-20T08:59:22.378Z,62.90
2023-12-20T09:00:22.366Z,62.29
2023-12-20T09:01:22.428Z,61.78
2023-12-20T09:02:22.509Z,62.05
2023-12-20T09:03:22.391Z,61.44
2023-12-20T09:04:22.588Z,61.04
2023-12-20T09:05:22.335Z,61.16
2023-12-20T09:06:22.304Z,61.37
2023-12-20T09:07:22.317Z,60.96
2023-12-20T09:08:22.231Z,61.19
2023-12-20T09:09:22.234Z,60.53
2023-12-20T09:10:22.321Z,60.12
2023-12-20T09:11:22.188Z,59.48
2023-12-20T09:12:22.180Z,59.30
2023-12-20T09:13:22.218Z,59.53
2023-12-20T09:14:22.196Z,59.94
2023-12-20T09:15:22.211Z,59.17
2023-12-20T09:16:22.197Z,58.97
2023-12-20T09:17:22.141Z,59.20
2023-12-20T09:18:22.197Z,58.69
2023-12-20T09:19:22.175Z,58.36
2023-12-20T09:20:22.380Z,57.95
2023-12-20T09:21:22.064Z,58.46
2023-12-20T09:22:22.246Z,58.56
2023-12-20T09:23:22.023Z,57.82
2023-12-20T09:24:22.040Z,57.42
2023-12-20T09:25:22.025Z,57.42
2023-12-20T09:26:22.036Z,57.72
2023-12-20T09:27:21.975Z,57.65
2023-12-20T09:28:22.036Z,57.72
2023-12-20T09:29:21.951Z,57.11
2023-12-20T09:30:26.998Z,57.31
2023-12-20T09:31:23.057Z,57.24
2023-12-20T09:32:21.904Z,58.31
2023-12-20T09:33:22.072Z,58.46
2023-12-20T09:34:21.953Z,58.80
2023-12-20T09:35:22.066Z,58.59
2023-12-20T09:36:22.047Z,58.80
2023-12-20T09:37:21.932Z,59.23
2023-12-20T09:38:21.845Z,59.84
2023-12-20T09:39:21.836Z,60.07
2023-12-20T09:40:21.991Z,59.94
2023-12-20T09:41:21.840Z,60.14
2023-12-20T09:42:21.777Z,60.99
2023-12-20T09:43:21.866Z,60.55
2023-12-20T09:44:21.761Z,60.53
2023-12-20T09:45:21.739Z,59.61
2023-12-20T09:46:21.758Z,59.84
2023-12-20T09:47:21.729Z,60.07
2023-12-20T09:48:21.830Z,59.87
2023-12-20T09:49:21.825Z,60.25
2023-12-20T09:50:21.726Z,60.14
2023-12-20T09:51:21.669Z,60.02
2023-12-20T09:52:21.719Z,59.07
2023-12-20T09:53:21.626Z,59.10
2023-12-20T09:54:21.638Z,59.10
2023-12-20T09:55:21.866Z,59.10
2023-12-20T09:56:21.617Z,58.89
2023-12-20T09:57:21.590Z,58.80
2023-12-20T09:58:21.634Z,59.23
2023-12-20T09:59:21.567Z,59.43
2023-12-20T10:00:21.527Z,59.33
2023-12-20T10:01:21.656Z,59.03
2023-12-20T10:02:21.648Z,59.23
2023-12-20T10:03:21.481Z,59.33
2023-12-20T10:04:29.311Z,59.00
2023-12-20T10:05:22.676Z,58.59
2023-12-20T10:06:21.563Z,58.62
2023-12-20T10:07:21.513Z,59.12
2023-12-20T10:08:21.450Z,58.69
2023-12-20T10:09:21.418Z,58.72
2023-12-20T10:10:21.480Z,58.92
2023-12-20T10:11:21.405Z,58.18
2023-12-20T10:12:21.504Z,58.51
2023-12-20T10:13:21.538Z,58.62
2023-12-20T10:14:21.387Z,58.49
2023-12-20T10:15:21.347Z,58.41
2023-12-20T10:16:21.350Z,59.03
2023-12-20T10:17:21.320Z,58.39
2023-12-20T10:18:21.309Z,58.36
2023-12-20T10:19:21.412Z,58.15
2023-12-20T10:20:21.369Z,57.57
2023-12-20T10:21:21.255Z,57.80
2023-12-20T10:22:21.344Z,57.98
2023-12-20T10:23:21.219Z,57.11
2023-12-20T10:24:21.234Z,56.90
2023-12-20T10:25:21.332Z,56.68
2023-12-20T10:26:21.207Z,55.55
2023-12-20T10:27:21.209Z,55.94
2023-12-20T10:28:21.302Z,55.99
2023-12-20T10:29:21.158Z,56.63
2023-12-20T10:30:21.191Z,56.76
2023-12-20T10:31:21.284Z,57.37
2023-12-20T10:32:21.101Z,57.14
2023-12-20T10:33:21.216Z,57.06
2023-12-20T10:34:21.152Z,56.42
2023-12-20T10:35:21.120Z,56.73
2023-12-20T10:36:21.062Z,56.70
2023-12-20T10:37:21.108Z,56.90
2023-12-20T10:38:21.032Z,56.50
2023-12-20T10:39:21.020Z,56.50
2023-12-20T10:40:21.021Z,57.24
2023-12-20T10:41:21.671Z,56.81
2023-12-20T10:42:21.016Z,56.63
2023-12-20T10:43:21.117Z,56.85
2023-12-20T10:44:20.952Z,57.26
2023-12-20T10:45:20.931Z,56.73
2023-12-20T10:46:20.971Z,56.42
2023-12-20T10:47:20.906Z,57.14
2023-12-20T10:48:20.938Z,57.31
2023-12-20T10:49:21.017Z,56.09
2023-12-20T10:50:20.948Z,56.09
2023-12-20T10:51:20.839Z,55.96
2023-12-20T10:52:20.849Z,55.86
2023-12-20T10:53:20.911Z,55.76
2023-12-20T10:54:20.816Z,55.53
2023-12-20T10:55:20.918Z,55.07
2023-12-20T10:56:20.809Z,55.61
2023-12-20T10:57:20.795Z,55.99
2023-12-20T10:58:20.813Z,56.32
2023-12-20T10:59:20.745Z,56.37
2023-12-20T11:00:20.845Z,55.73
2023-12-20T11:01:20.820Z,55.68
2023-12-20T11:02:20.750Z,55.79
2023-12-20T11:03:20.687Z,55.66
2023-12-20T11:04:20.845Z,55.35
2023-12-20T11:05:20.762Z,55.15
2023-12-20T11:06:20.802Z,55.53
2023-12-20T11:07:20.767Z,55.00
2023-12-20T11:08:20.687Z,54.74
2023-12-20T11:09:20.670Z,55.43
2023-12-20T11:10:20.626Z,55.05
2023-12-20T11:11:20.638Z,55.15
2023-12-20T11:12:20.589Z,55.46
2023-12-20T11:13:20.685Z,54.18
2023-12-20T11:14:20.565Z,54.39
2023-12-20T11:15:20.549Z,53.27
2023-12-20T11:16:21.186Z,53.42
2023-12-20T11:17:20.540Z,54.18
2023-12-20T11:18:20.510Z,54.59
2023-12-20T11:19:20.597Z,54.97
2023-12-20T11:20:20.597Z,53.88
2023-12-20T11:21:20.467Z,53.72
2023-12-20T11:22:20.468Z,54.36
2023-12-20T11:23:20.412Z,54.66
2023-12-20T11:24:20.617Z,55.02
2023-12-20T11:25:20.455Z,55.41
2023-12-20T11:26:20.411Z,54.33
2023-12-20T11:27:20.365Z,54.05
2023-12-20T11:28:20.440Z,54.59
2023-12-20T11:29:20.329Z,54.66
2023-12-20T11:30:20.367Z,54.44
2023-12-20T11:31:20.513Z,54.44
2023-12-20T11:32:20.325Z,54.18
2023-12-20T11:33:20.282Z,55.10
2023-12-20T11:34:20.329Z,55.41
2023-12-20T11:35:20.433Z,55.20
2023-12-20T11:36:20.291Z,55.51
2023-12-20T11:37:20.320Z,55.07
2023-12-20T11:38:20.221Z,54.44
2023-12-20T11:39:20.197Z,54.44
2023-12-20T11:40:20.407Z,53.90
2023-12-20T11:41:20.180Z,53.83
2023-12-20T11:42:20.160Z,53.70
2023-12-20T11:43:20.241Z,54.66
2023-12-20T11:44:20.159Z,54.33
2023-12-20T11:45:20.314Z,54.24
2023-12-20T11:46:20.131Z,53.42
2023-12-20T11:47:20.110Z,53.83
2023-12-20T11:48:20.223Z,52.81
2023-12-20T11:49:20.264Z,53.52
2023-12-20T11:50:20.509Z,52.71
2023-12-20T11:51:21.341Z,53.06
2023-12-20T11:52:20.022Z,53.88
2023-12-20T11:53:20.047Z,53.75
2023-12-20T11:54:20.007Z,53.42
2023-12-20T11:55:20.123Z,52.98
2023-12-20T11:56:19.984Z,52.78
2023-12-20T11:57:20.013Z,52.56
2023-12-20T11:58:19.932Z,51.82
2023-12-20T11:59:23.265Z,52.28
2023-12-20T12:00:19.955Z,52.48
2023-12-20T12:01:20.006Z,52.89
2023-12-20T12:02:19.876Z,52.76
2023-12-20T12:03:19.995Z,52.35
2023-12-20T12:04:20.102Z,51.29
2023-12-20T12:05:19.979Z,50.86
2023-12-20T12:06:19.930Z,50.25
2023-12-20T12:07:19.942Z,50.88
2023-12-20T12:08:19.943Z,50.78
2023-12-20T12:09:19.814Z,50.98
2023-12-20T12:10:19.908Z,51.29
2023-12-20T12:11:19.787Z,51.16
2023-12-20T12:12:19.759Z,50.12
2023-12-20T12:13:19.840Z,50.90
2023-12-20T12:14:19.732Z,51.95
2023-12-20T12:15:19.697Z,52.78
2023-12-20T12:16:19.788Z,53.11
2023-12-20T12:17:19.820Z,53.19
2023-12-20T12:18:19.757Z,53.83
2023-12-20T12:19:19.752Z,53.83
2023-12-20T12:20:19.667Z,54.03
2023-12-20T12:21:22.793Z,54.57
2023-12-20T12:22:19.651Z,55.30
2023-12-20T12:23:19.605Z,55.71
2023-12-20T12:24:19.608Z,55.91
2023-12-20T12:25:19.605Z,55.79
2023-12-20T12:26:19.574Z,55.41
2023-12-20T12:27:19.565Z,56.35
2023-12-20T12:28:19.700Z,56.58
2023-12-20T12:29:19.521Z,56.35
2023-12-20T12:30:19.559Z,56.78
2023-12-20T12:31:19.600Z,56.76
2023-12-20T12:32:19.534Z,57.17
2023-12-20T12:33:19.751Z,57.09
2023-12-20T12:34:19.587Z,57.98
2023-12-20T12:35:19.450Z,56.70
2023-12-20T12:36:19.418Z,56.93
2023-12-20T12:37:19.507Z,56.73
2023-12-20T12:38:19.462Z,57.06
2023-12-20T12:39:19.432Z,56.70
2023-12-20T12:40:19.426Z,56.16
2023-12-20T12:41:19.363Z,55.63
2023-12-20T12:42:19.357Z,55.96
2023-12-20T12:43:19.413Z,56.70
2023-12-20T12:44:19.307Z,56.60
2023-12-20T12:45:19.347Z,56.96
2023-12-20T12:46:19.318Z,57.67
2023-12-20T12:47:19.310Z,57.34
2023-12-20T12:48:19.457Z,56.83
2023-12-20T12:49:19.333Z,57.31
2023-12-20T12:50:19.381Z,56.29
2023-12-20T12:51:19.274Z,57.01
2023-12-20T12:52:19.222Z,57.54
2023-12-20T12:53:19.180Z,57.31
2023-12-20T12:54:19.256Z,57.44
2023-12-20T12:55:19.229Z,57.62
2023-12-20T12:56:19.149Z,57.11
2023-12-20T12:57:19.196Z,57.52
2023-12-20T12:58:19.254Z,57.21
2023-12-20T12:59:19.194Z,56.50
2023-12-20T13:00:19.131Z,57.75
2023-12-20T13:01:19.178Z,57.29
2023-12-20T13:02:19.056Z,56.77